createdAt,value
2022-10-15T00:00:21.427Z,5.07
2022-10-15T00:02:49.288Z,5.37
2022-10-15T00:05:17.392Z,5.83
2022-10-15T00:07:45.297Z,4.90
2022-10-15T00:10:13.247Z,4.70
2022-10-15T00:12:41.713Z,4.90
2022-10-15T00:15:11.318Z,4.93
2022-10-15T00:17:40.784Z,4.33
2022-10-15T00:20:11.609Z,4.70
2022-10-15T00:22:39.868Z,4.67
2022-10-15T00:25:08.699Z,4.33
2022-10-15T00:27:36.728Z,4.33
2022-10-15T00:30:05.925Z,4.37
2022-10-15T00:32:34.844Z,4.40
2022-10-15T00:35:04.182Z,4.93
2022-10-15T00:37:31.996Z,4.90
2022-10-15T00:39:59.902Z,5.23
2022-10-15T00:42:27.777Z,4.97
2022-10-15T00:44:57.976Z,5.53
2022-10-15T00:47:33.874Z,5.50
2022-10-15T00:50:07.184Z,6.23
2022-10-15T00:52:40.775Z,5.60
2022-10-15T00:55:13.559Z,6.37
2022-10-15T00:57:43.550Z,5.60
2022-10-15T01:00:15.145Z,5.77
2022-10-15T01:02:43.315Z,5.73
2022-10-15T01:05:14.082Z,6.30
2022-10-15T01:07:41.919Z,6.50
2022-10-15T01:10:11.830Z,5.80
2022-10-15T01:13:08.131Z,6.37
2022-10-15T01:15:45.701Z,5.80
2022-10-15T01:18:17.165Z,6.57
2022-10-15T01:21:04.955Z,6.77
2022-10-15T01:24:18.361Z,6.50
2022-10-15T01:27:16.124Z,6.13
2022-10-15T01:30:02.723Z,6.70
2022-10-15T01:32:37.386Z,6.67
2022-10-15T01:35:16.535Z,7.60
2022-10-15T01:37:51.743Z,6.80
2022-10-15T01:40:25.810Z,6.77
2022-10-15T01:42:58.120Z,6.50
2022-10-15T01:45:30.759Z,7.30
2022-10-15T01:48:04.188Z,7.57
2022-10-15T01:50:35.211Z,8.30
2022-10-15T01:53:06.994Z,8.00
2022-10-15T01:55:37.842Z,8.10
2022-10-15T01:58:06.735Z,8.80
2022-10-15T02:00:34.494Z,8.50
2022-10-15T02:03:04.930Z,9.03
2022-10-15T02:05:39.820Z,8.43
2022-10-15T02:08:18.958Z,9.10
2022-10-15T02:10:53.238Z,9.47
2022-10-15T02:13:30.663Z,9.27
2022-10-15T02:16:07.871Z,9.73
2022-10-15T02:18:44.268Z,9.53
2022-10-15T02:21:17.645Z,9.47
2022-10-15T02:23:50.079Z,10.33
2022-10-15T02:26:18.744Z,9.77
2022-10-15T02:28:52.126Z,10.50
2022-10-15T02:31:21.718Z,10.07
2022-10-15T02:33:53.098Z,10.33
2022-10-15T02:36:21.750Z,10.60
2022-10-15T02:38:51.373Z,10.40
2022-10-15T02:41:20.040Z,10.07
2022-10-15T02:43:48.290Z,10.30
2022-10-15T02:46:18.756Z,11.00
2022-10-15T02:48:46.547Z,9.47
2022-10-15T02:51:15.674Z,8.80
2022-10-15T02:53:43.452Z,9.17
2022-10-15T02:56:11.360Z,9.07
2022-10-15T02:58:39.188Z,8.57
2022-10-15T03:01:07.337Z,9.20
2022-10-15T03:03:35.251Z,9.30
2022-10-15T03:06:03.195Z,9.53
2022-10-15T03:08:32.765Z,9.23
2022-10-15T03:11:01.434Z,9.37
2022-10-15T03:13:29.482Z,8.87
2022-10-15T03:15:57.614Z,9.37
2022-10-15T03:18:25.622Z,9.17
2022-10-15T03:20:57.164Z,8.80
2022-10-15T03:23:25.378Z,9.13
2022-10-15T03:25:54.927Z,8.47
2022-10-15T03:28:23.268Z,8.40
2022-10-15T03:30:51.146Z,8.47
2022-10-15T03:33:20.773Z,9.63
2022-10-15T03:35:51.960Z,9.07
2022-10-15T03:38:19.957Z,8.47
2022-10-15T03:40:47.984Z,8.10
2022-10-15T03:43:17.214Z,8.17
2022-10-15T03:45:45.023Z,8.07
2022-10-15T03:48:12.880Z,7.67
2022-10-15T03:50:40.839Z,7.53
2022-10-15T03:53:08.766Z,8.10
2022-10-15T03:55:36.844Z,7.33
2022-10-15T03:58:04.702Z,9.23
2022-10-15T04:00:33.947Z,8.00
2022-10-15T04:03:01.760Z,7.70
2022-10-15T04:05:29.566Z,6.93
2022-10-15T04:07:58.102Z,6.23
2022-10-15T04:10:25.951Z,6.77
2022-10-15T04:12:53.843Z,6.33
2022-10-15T04:15:21.648Z,5.73
2022-10-15T04:17:54.555Z,5.47
2022-10-15T04:20:22.384Z,6.20
2022-10-15T04:22:50.197Z,5.67
2022-10-15T04:25:18.352Z,5.17
2022-10-15T04:27:46.119Z,5.73
2022-10-15T04:30:14.541Z,5.73
2022-10-15T04:32:42.375Z,6.40
2022-10-15T04:35:11.791Z,6.47
2022-10-15T04:37:39.689Z,6.40
2022-10-15T04:40:09.221Z,6.13
2022-10-15T04:42:36.911Z,6.80
2022-10-15T04:45:05.361Z,6.80
2022-10-15T04:47:33.191Z,6.80
2022-10-15T04:50:00.969Z,6.90
2022-10-15T04:52:30.240Z,7.27
2022-10-15T04:54:58.578Z,7.63
2022-10-15T04:57:26.952Z,8.07
2022-10-15T04:59:57.656Z,7.37
2022-10-15T05:02:26.006Z,7.73
2022-10-15T05:04:53.972Z,7.30
2022-10-15T05:07:22.083Z,8.23
2022-10-15T05:09:51.613Z,8.03
2022-10-15T05:12:20.426Z,7.30
2022-10-15T05:14:48.214Z,7.30
2022-10-15T05:17:16.127Z,7.93
2022-10-15T05:19:43.918Z,7.87
2022-10-15T05:22:11.793Z,7.77
2022-10-15T05:24:39.671Z,8.27
2022-10-15T05:27:08.932Z,9.03
2022-10-15T05:29:38.171Z,8.00
2022-10-15T05:32:06.364Z,8.43
2022-10-15T05:34:34.367Z,8.10
2022-10-15T05:37:02.090Z,8.00
2022-10-15T05:39:29.871Z,8.70
2022-10-15T05:41:58.091Z,8.27
2022-10-15T05:44:27.313Z,8.20
2022-10-15T05:46:55.056Z,8.60
2022-10-15T05:49:22.973Z,8.40
2022-10-15T05:51:50.751Z,7.47
2022-10-15T05:54:18.599Z,8.73
2022-10-15T05:56:46.526Z,8.37
2022-10-15T05:59:14.290Z,8.43
2022-10-15T06:01:43.457Z,8.43
2022-10-15T06:04:11.745Z,7.53
2022-10-15T06:06:39.562Z,7.33
2022-10-15T06:09:07.308Z,7.50
2022-10-15T06:11:35.071Z,6.97
2022-10-15T06:14:02.946Z,7.53
2022-10-15T06:16:30.723Z,7.27
2022-10-15T06:18:59.887Z,7.97
2022-10-15T06:21:28.336Z,6.93
2022-10-15T06:23:56.047Z,7.17
2022-10-15T06:26:23.793Z,6.00
2022-10-15T06:28:51.589Z,5.33
2022-10-15T06:31:19.490Z,5.60
2022-10-15T06:33:47.271Z,5.20
2022-10-15T06:36:16.749Z,6.03
2022-10-15T06:38:45.013Z,6.67
2022-10-15T06:41:12.811Z,6.43
2022-10-15T06:43:40.666Z,6.70
2022-10-15T06:46:08.518Z,5.87
2022-10-15T06:48:36.455Z,6.83
2022-10-15T06:51:05.525Z,7.27
2022-10-15T06:53:35.035Z,7.10
2022-10-15T06:56:04.206Z,6.63
2022-10-15T06:58:32.242Z,7.33
2022-10-15T07:01:01.751Z,7.07
2022-10-15T07:03:29.843Z,6.80
2022-10-15T07:05:57.832Z,5.67
2022-10-15T07:08:26.577Z,5.80
2022-10-15T07:10:55.761Z,6.00
2022-10-15T07:13:23.564Z,5.47
2022-10-15T07:15:54.035Z,5.17
2022-10-15T07:18:21.900Z,5.73
2022-10-15T07:20:49.767Z,5.07
2022-10-15T07:23:25.509Z,5.20
2022-10-15T07:25:58.497Z,5.80
2022-10-15T07:28:26.737Z,5.10
2022-10-15T07:30:54.736Z,5.10
2022-10-15T07:33:22.534Z,5.27
2022-10-15T07:35:50.315Z,5.20
2022-10-15T07:38:18.274Z,5.33
2022-10-15T07:40:46.055Z,4.67
2022-10-15T07:43:15.867Z,4.83
2022-10-15T07:45:48.253Z,5.03
2022-10-15T07:48:16.201Z,5.40
2022-10-15T07:50:44.130Z,4.77
2022-10-15T07:53:11.918Z,4.37
2022-10-15T07:55:39.685Z,4.07
2022-10-15T07:58:08.413Z,4.30
2022-10-15T08:00:37.673Z,4.70
2022-10-15T08:03:05.830Z,3.63
2022-10-15T08:05:34.398Z,3.97
2022-10-15T08:08:02.334Z,3.30
2022-10-15T08:10:30.375Z,3.20
2022-10-15T08:12:58.123Z,3.57
2022-10-15T08:15:25.848Z,2.87
2022-10-15T08:17:54.980Z,2.67
2022-10-15T08:20:22.830Z,2.90
2022-10-15T08:22:50.607Z,2.97
2022-10-15T08:25:18.547Z,2.87
2022-10-15T08:27:46.446Z,2.80
2022-10-15T08:30:14.318Z,2.07
2022-10-15T08:32:42.119Z,2.60
2022-10-15T08:35:11.446Z,2.20
2022-10-15T08:37:39.373Z,2.20
2022-10-15T08:40:08.622Z,2.07
2022-10-15T08:42:39.474Z,2.43
2022-10-15T08:45:13.451Z,2.53
2022-10-15T08:47:46.803Z,2.23
2022-10-15T08:50:27.330Z,2.27
2022-10-15T08:52:57.931Z,2.20
2022-10-15T08:55:33.392Z,2.60
2022-10-15T08:58:08.012Z,2.27
2022-10-15T09:00:38.575Z,2.80
2022-10-15T09:03:16.036Z,2.00
2022-10-15T09:05:51.934Z,1.93
2022-10-15T09:08:29.658Z,2.00
2022-10-15T09:11:02.480Z,1.73
2022-10-15T09:13:34.714Z,1.90
2022-10-15T09:16:11.738Z,1.90
2022-10-15T09:18:42.846Z,2.13
2022-10-15T09:21:13.105Z,1.97
2022-10-15T09:23:43.629Z,1.80
2022-10-15T09:26:27.016Z,1.67
2022-10-15T09:29:04.307Z,1.80
2022-10-15T09:31:37.427Z,1.90
2022-10-15T09:34:12.712Z,1.70
2022-10-15T09:36:48.177Z,1.80
2022-10-15T09:39:35.851Z,1.67
2022-10-15T09:42:14.910Z,1.80
2022-10-15T09:44:45.682Z,2.33
2022-10-15T09:47:23.510Z,1.80
2022-10-15T09:49:51.374Z,1.63
2022-10-15T09:52:30.972Z,1.53
2022-10-15T09:55:08.194Z,1.20
2022-10-15T09:57:38.689Z,1.37
2022-10-15T10:00:10.600Z,1.40
2022-10-15T10:02:38.624Z,1.10
2022-10-15T10:05:22.347Z,1.40
2022-10-15T10:07:51.548Z,1.30
2022-10-15T10:10:26.480Z,1.70
2022-10-15T10:12:57.078Z,1.87
2022-10-15T10:15:34.144Z,1.60
2022-10-15T10:18:05.353Z,1.87
2022-10-15T10:20:34.868Z,1.73
2022-10-15T10:23:23.426Z,1.80
2022-10-15T10:25:51.579Z,1.80
2022-10-15T10:28:27.901Z,2.10
2022-10-15T10:31:03.808Z,1.80
2022-10-15T10:33:35.143Z,1.60
2022-10-15T10:36:03.259Z,1.37
2022-10-15T10:38:34.222Z,1.13
2022-10-15T10:41:08.534Z,1.10
2022-10-15T10:43:39.501Z,1.07
2022-10-15T10:46:18.958Z,1.10
2022-10-15T10:48:48.649Z,0.90
2022-10-15T10:51:19.510Z,1.20
2022-10-15T10:53:55.457Z,1.20
2022-10-15T10:56:26.622Z,1.23
2022-10-15T10:59:01.185Z,1.00
2022-10-15T11:01:30.121Z,1.23
2022-10-15T11:03:57.932Z,1.40
2022-10-15T11:06:46.144Z,1.20
2022-10-15T11:09:33.075Z,1.10
2022-10-15T11:12:15.514Z,1.20
2022-10-15T11:14:49.840Z,1.20
2022-10-15T11:17:26.426Z,1.23
2022-10-15T11:23:00.700Z,1.23
2022-10-15T11:25:42.736Z,1.30
2022-10-15T11:28:23.820Z,1.20
2022-10-15T11:31:00.843Z,1.17
2022-10-15T11:33:52.420Z,1.20
2022-10-15T11:36:33.608Z,1.10
2022-10-15T11:39:14.734Z,1.10
2022-10-15T11:41:52.818Z,1.77
2022-10-15T11:44:33.245Z,1.30
2022-10-15T11:47:12.077Z,1.17
2022-10-15T11:49:50.928Z,1.53
2022-10-15T11:52:47.465Z,1.60
2022-10-15T11:55:20.206Z,1.60
2022-10-15T11:57:54.956Z,1.10
2022-10-15T12:00:34.268Z,1.20
2022-10-15T12:03:08.467Z,1.40
2022-10-15T12:05:40.110Z,1.20
2022-10-15T12:08:10.720Z,1.40
2022-10-15T12:11:04.208Z,1.40
2022-10-15T12:13:40.407Z,1.60
2022-10-15T12:16:19.804Z,1.50
2022-10-15T12:18:56.889Z,1.40
2022-10-15T12:21:37.843Z,1.60
2022-10-15T12:24:10.530Z,1.43
2022-10-15T12:26:38.657Z,2.13
2022-10-15T12:29:21.653Z,2.00
2022-10-15T12:31:51.963Z,1.30
2022-10-15T12:34:29.723Z,1.67
2022-10-15T12:37:06.234Z,2.37
2022-10-15T12:39:48.031Z,1.90
2022-10-15T12:42:27.413Z,1.67
2022-10-15T12:44:57.277Z,1.70
2022-10-15T12:47:48.273Z,1.93
2022-10-15T12:50:20.162Z,1.80
2022-10-15T12:53:00.216Z,1.80
2022-10-15T12:55:34.159Z,1.57
2022-10-15T12:58:05.386Z,1.63
2022-10-15T13:00:42.896Z,1.40
2022-10-15T13:03:29.728Z,1.60
2022-10-15T13:06:14.436Z,1.60
2022-10-15T13:08:46.855Z,1.20
2022-10-15T13:11:24.444Z,1.20
2022-10-15T13:13:56.472Z,1.60
2022-10-15T13:16:25.667Z,1.30
2022-10-15T13:18:57.127Z,2.03
2022-10-15T13:21:49.632Z,1.20
2022-10-15T13:24:20.694Z,1.13
2022-10-15T13:26:49.042Z,1.00
2022-10-15T13:29:18.695Z,1.20
2022-10-15T13:31:48.246Z,1.10
2022-10-15T13:34:25.473Z,0.97
2022-10-15T13:36:54.987Z,1.00
2022-10-15T13:39:29.437Z,0.93
2022-10-15T13:42:09.361Z,1.13
2022-10-15T13:44:37.586Z,0.80
2022-10-15T13:47:25.550Z,0.80
2022-10-15T13:50:11.329Z,1.50
2022-10-15T13:52:41.291Z,1.00
2022-10-15T13:55:18.712Z,1.03
2022-10-15T13:57:47.470Z,0.90
2022-10-15T14:00:22.652Z,0.80
2022-10-15T14:03:15.102Z,0.90
2022-10-15T14:05:43.261Z,0.90
2022-10-15T14:08:20.228Z,0.80
2022-10-15T14:10:49.004Z,0.70
2022-10-15T14:13:17.462Z,1.30
2022-10-15T14:15:50.027Z,1.20
2022-10-15T14:18:29.356Z,1.17
2022-10-15T14:20:57.243Z,0.80
2022-10-15T14:23:28.089Z,0.80
2022-10-15T14:25:59.328Z,0.70
2022-10-15T14:28:29.043Z,0.80
2022-10-15T14:30:57.953Z,1.10
2022-10-15T14:33:48.285Z,1.30
2022-10-15T14:36:28.172Z,1.10
2022-10-15T14:38:56.753Z,1.43
2022-10-15T14:41:28.422Z,1.13
2022-10-15T14:44:06.054Z,1.00
2022-10-15T14:46:39.438Z,1.00
2022-10-15T14:49:23.042Z,0.90
2022-10-15T14:52:00.841Z,0.80
2022-10-15T14:54:34.083Z,1.00
2022-10-15T14:57:02.214Z,0.90
2022-10-15T14:59:33.887Z,0.80
2022-10-15T15:02:03.682Z,0.97
2022-10-15T15:04:39.088Z,0.67
2022-10-15T15:07:20.045Z,0.60
2022-10-15T15:09:52.100Z,0.60
2022-10-15T15:12:26.941Z,0.80
2022-10-15T15:14:56.534Z,0.40
2022-10-15T15:17:26.191Z,0.50
2022-10-15T15:19:57.250Z,1.63
2022-10-15T15:22:30.665Z,0.73
2022-10-15T15:25:00.861Z,1.03
2022-10-15T15:27:31.168Z,0.87
2022-10-15T15:29:59.098Z,0.60
2022-10-15T15:32:27.432Z,0.80
2022-10-15T15:34:58.772Z,0.90
2022-10-15T15:37:27.709Z,0.97
2022-10-15T15:39:56.384Z,0.83
2022-10-15T15:42:26.289Z,0.97
2022-10-15T15:44:54.358Z,0.83
2022-10-15T15:47:22.221Z,0.80
2022-10-15T15:49:50.024Z,0.90
2022-10-15T15:52:19.182Z,0.80
2022-10-15T15:54:47.316Z,1.20
2022-10-15T15:57:15.497Z,1.53
2022-10-15T15:59:43.449Z,1.10
2022-10-15T16:02:12.701Z,0.90
2022-10-15T16:04:40.504Z,0.80
2022-10-15T16:07:10.386Z,0.80
2022-10-15T16:09:42.714Z,0.70
2022-10-15T16:12:10.434Z,1.50
2022-10-15T16:14:38.395Z,1.13
2022-10-15T16:17:06.147Z,1.00
2022-10-15T16:19:34.001Z,1.80
2022-10-15T16:22:01.896Z,1.30
2022-10-15T16:24:29.852Z,1.13
2022-10-15T16:26:59.215Z,0.97
2022-10-15T16:29:27.074Z,1.37
2022-10-15T16:31:55.012Z,0.90
2022-10-15T16:34:23.249Z,0.50
2022-10-15T16:36:51.044Z,1.00
2022-10-15T16:39:19.031Z,0.60
2022-10-15T16:41:46.928Z,0.63
2022-10-15T16:44:16.169Z,0.47
2022-10-15T16:46:44.717Z,0.50
2022-10-15T16:49:12.621Z,0.70
2022-10-15T16:51:43.476Z,0.90
2022-10-15T16:54:15.331Z,0.50
2022-10-15T16:56:45.404Z,0.40
2022-10-15T16:59:17.103Z,0.83
2022-10-15T17:01:44.927Z,0.70
2022-10-15T17:04:12.847Z,0.47
2022-10-15T17:06:40.690Z,0.80
2022-10-15T17:09:09.085Z,0.70
2022-10-15T17:11:38.852Z,0.80
2022-10-15T17:14:08.520Z,0.90
2022-10-15T17:16:39.549Z,0.90
2022-10-15T17:19:08.387Z,1.00
2022-10-15T17:21:36.767Z,0.80
2022-10-15T17:24:07.905Z,1.10
2022-10-15T17:26:38.510Z,0.70
2022-10-15T17:29:07.574Z,0.90
2022-10-15T17:31:36.977Z,1.00
2022-10-15T17:34:06.617Z,0.93
2022-10-15T17:36:42.159Z,1.10
2022-10-15T17:39:11.328Z,1.10
2022-10-15T17:41:39.139Z,1.17
2022-10-15T17:44:06.976Z,1.00
2022-10-15T17:46:34.796Z,1.00
2022-10-15T17:49:04.233Z,1.00
2022-10-15T17:51:34.685Z,0.80
2022-10-15T17:54:02.833Z,1.10
2022-10-15T17:56:32.236Z,1.07
2022-10-15T17:59:00.938Z,1.40
2022-10-15T18:01:56.662Z,1.20
2022-10-15T18:04:20.662Z,1.27
2022-10-15T18:06:48.809Z,1.17
2022-10-15T18:09:16.985Z,1.93
2022-10-15T18:11:46.610Z,1.30
2022-10-15T18:14:14.533Z,1.20
2022-10-15T18:16:43.230Z,1.50
2022-10-15T18:19:11.618Z,1.27
2022-10-15T18:21:41.941Z,1.80
2022-10-15T18:24:11.234Z,1.43
2022-10-15T18:26:39.000Z,1.83
2022-10-15T18:29:06.987Z,1.40
2022-10-15T18:31:35.159Z,1.50
2022-10-15T18:34:03.689Z,1.43
2022-10-15T18:36:33.227Z,1.70
2022-10-15T18:39:02.366Z,1.80
2022-10-15T18:41:33.539Z,1.20
2022-10-15T18:44:03.364Z,2.00
2022-10-15T18:46:32.177Z,1.90
2022-10-15T18:48:59.990Z,1.33
2022-10-15T18:51:29.393Z,1.30
2022-10-15T18:53:57.542Z,1.50
2022-10-15T18:56:26.904Z,1.30
2022-10-15T18:58:54.896Z,1.40
2022-10-15T19:01:26.690Z,1.13
2022-10-15T19:03:54.749Z,1.40
2022-10-15T19:06:24.625Z,1.37
2022-10-15T19:08:52.759Z,1.40
2022-10-15T19:11:20.785Z,1.80
2022-10-15T19:13:50.173Z,1.63
2022-10-15T19:16:17.996Z,1.90
2022-10-15T19:18:45.886Z,1.77
2022-10-15T19:21:13.728Z,1.60
2022-10-15T19:23:41.846Z,1.90
2022-10-15T19:26:10.704Z,1.23
2022-10-15T19:28:39.171Z,1.70
2022-10-15T19:31:10.939Z,1.23
2022-10-15T19:33:38.842Z,1.10
2022-10-15T19:36:07.132Z,1.13
2022-10-15T19:38:35.088Z,1.40
2022-10-15T19:41:04.934Z,1.10
2022-10-15T19:43:32.862Z,1.20
2022-10-15T19:46:04.572Z,1.43
2022-10-15T19:48:33.745Z,1.67
2022-10-15T19:51:02.761Z,1.17
2022-10-15T19:53:32.129Z,1.70
2022-10-15T19:56:07.370Z,1.50
2022-10-15T19:58:35.766Z,1.20
2022-10-15T20:01:05.348Z,1.20
2022-10-15T20:06:06.602Z,1.20
2022-10-15T20:08:34.564Z,1.23
2022-10-15T20:11:02.358Z,1.20
2022-10-15T20:13:30.404Z,1.50
2022-10-15T20:16:03.607Z,1.43
2022-10-15T20:18:32.441Z,1.43
2022-10-15T20:21:07.052Z,1.57
2022-10-15T20:23:35.091Z,1.50
2022-10-15T20:26:05.530Z,1.20
2022-10-15T20:28:35.863Z,1.30
2022-10-15T20:31:06.217Z,1.20
2022-10-15T20:33:34.247Z,1.37
2022-10-15T20:36:08.070Z,1.33
2022-10-15T20:38:37.734Z,1.50
2022-10-15T20:41:10.823Z,1.40
2022-10-15T20:43:39.138Z,1.20
2022-10-15T20:46:09.230Z,1.50
2022-10-15T20:48:39.592Z,1.40
2022-10-15T20:51:10.479Z,1.40
2022-10-15T20:53:39.019Z,1.40
2022-10-15T20:56:07.778Z,1.50
2022-10-15T20:58:35.796Z,1.20
2022-10-15T21:01:03.870Z,1.50
2022-10-15T21:03:31.903Z,1.27
2022-10-15T21:06:00.100Z,1.30
2022-10-15T21:08:29.465Z,1.30
2022-10-15T21:11:02.792Z,1.20
2022-10-15T21:13:30.985Z,1.33
2022-10-15T21:16:00.120Z,1.30
2022-10-15T21:18:28.133Z,1.23
2022-10-15T21:20:56.630Z,1.30
2022-10-15T21:23:24.423Z,1.13
2022-10-15T21:25:53.528Z,1.30
2022-10-15T21:28:21.430Z,1.20
2022-10-15T21:30:49.302Z,1.10
2022-10-15T21:33:17.101Z,1.23
2022-10-15T21:35:44.834Z,1.10
2022-10-15T21:38:12.597Z,1.20
2022-10-15T21:40:40.398Z,1.40
2022-10-15T21:43:09.658Z,1.10
2022-10-15T21:45:38.222Z,1.23
2022-10-15T21:48:06.640Z,1.00
2022-10-15T21:50:34.448Z,1.10
2022-10-15T21:53:03.623Z,1.30
2022-10-15T21:55:31.482Z,1.17
2022-10-15T21:57:59.215Z,1.10
2022-10-15T22:00:29.341Z,1.20
2022-10-15T22:02:57.054Z,1.20
2022-10-15T22:05:24.862Z,1.30
2022-10-15T22:07:52.689Z,1.00
2022-10-15T22:10:20.483Z,1.10
2022-10-15T22:12:52.209Z,1.03
2022-10-15T22:15:20.022Z,1.00
2022-10-15T22:17:49.151Z,1.07
2022-10-15T22:20:21.375Z,0.80
2022-10-15T22:22:50.878Z,0.63
2022-10-15T22:25:18.613Z,0.90
2022-10-15T22:27:46.427Z,0.70
2022-10-15T22:30:14.282Z,1.10
2022-10-15T22:32:42.070Z,0.80
2022-10-15T22:35:11.259Z,0.80
2022-10-15T22:37:38.962Z,0.80
2022-10-15T22:40:07.175Z,0.90
2022-10-15T22:42:34.864Z,0.90
2022-10-15T22:45:02.662Z,0.97
2022-10-15T22:47:30.540Z,0.90
2022-10-15T22:49:58.489Z,0.90
2022-10-15T22:52:27.872Z,0.83
2022-10-15T22:54:55.918Z,1.10
2022-10-15T22:57:23.658Z,0.97
2022-10-15T22:59:55.858Z,0.80
2022-10-15T23:02:27.080Z,1.10
2022-10-15T23:04:55.246Z,1.10
2022-10-15T23:07:23.061Z,0.90
2022-10-15T23:09:52.151Z,0.93
2022-10-15T23:12:19.956Z,1.20
2022-10-15T23:14:48.886Z,1.00
2022-10-15T23:17:16.682Z,1.50
2022-10-15T23:19:44.464Z,1.03
2022-10-15T23:22:12.498Z,1.30
2022-10-15T23:24:40.307Z,1.63
2022-10-15T23:27:10.254Z,1.20
2022-10-15T23:29:37.986Z,2.13
2022-10-15T23:32:06.056Z,2.10
2022-10-15T23:34:33.754Z,6.37
2022-10-15T23:37:01.490Z,3.00
2022-10-15T23:39:29.196Z,3.00
2022-10-15T23:41:57.030Z,3.20
2022-10-15T23:44:26.768Z,2.80
2022-10-15T23:46:54.638Z,3.20
2022-10-15T23:49:22.400Z,3.13
2022-10-15T23:51:50.169Z,3.20
2022-10-15T23:54:19.464Z,2.70
2022-10-15T23:56:47.984Z,2.57
2022-10-15T23:59:16.997Z,3.00
